Liberty Square, Pennsylvania
Current Conditions -  °F | °C
As of 1:53 AM on Thursday 18 Dec 2014 (Local Time) from KLNS Reporting Station
Overcast Overcast  
Wind Chill: 23°   Ceiling: 5000
Heat Index: 35°   Visibility: 10mi
Dew Point: 18°   Wind: 23mph
Humidity: 50%   Direction: 310°NW
Pressure: 30.03"   Gusts: 29mph
Location:  39.8151°N, 76.2497°W
Report Text: KLNS 180653Z AUTO 31020G25KT 10SM OVC050 02/M08 A3003 RMK AO2 PK WND 31033/0600 SLP170 T00171078
Loading
Personal Weather Stations






























Interactive Weather Map New forecast layout! Learn more

10-Day Weather Forecast

Advertisements
Track Severe Weather on mobile